Time;durP1;ratioP1;P1;durP2;ratioP2;P2;SDS_P1;SDS_P2;PMS_P1;PMS_P2;Temp;Humidity;BMP_temperature;BMP_pressure;BME280_temperature;BME280_humidity;BME280_pressure;Samples;Min_cycle;Max_cycle;Signal;HPM_P1;HPM_P2
2022/07/27 00:01:22;;;;;;;14.10;6.70;;;;;;;19.18;78.02;98778.54;25082;1314;3058129;-63
2022/07/27 00:03:51;;;;;;;11.80;6.30;;;;;;;19.44;77.55;98784.31;25083;1314;3026667;-65
2022/07/27 00:06:24;;;;;;;12.80;6.60;;;;;;;19.52;77.05;98783.58;25146;1314;3054189;-62
2022/07/27 00:08:57;;;;;;;11.70;6.00;;;;;;;19.40;77.49;98782.38;25109;1313;3026401;-64
2022/07/27 00:11:27;;;;;;;12.50;6.40;;;;;;;19.19;78.25;98780.98;25059;1313;3028789;-66
2022/07/27 00:13:56;;;;;;;10.90;5.40;;;;;;;19.06;79.01;98782.14;25090;1313;3026899;-63
2022/07/27 00:16:25;;;;;;;9.30;5.20;;;;;;;19.41;77.97;98776.95;25083;1313;3056668;-64
2022/07/27 00:18:58;;;;;;;9.30;5.40;;;;;;;19.63;77.01;98779.73;25111;1313;3030216;-66
2022/07/27 00:21:28;;;;;;;9.90;6.10;;;;;;;19.47;77.37;98780.77;25055;1313;3026203;-64
2022/07/27 00:23:57;;;;;;;13.40;5.70;;;;;;;19.20;78.50;98782.08;25098;1313;3057969;-63
2022/07/27 00:26:25;;;;;;;9.30;4.70;;;;;;;19.02;79.59;98774.84;25040;1313;3026462;-69
2022/07/27 00:28:55;;;;;;;7.60;4.90;;;;;;;19.37;78.08;98773.83;25115;1313;3054404;-66
2022/07/27 00:31:23;;;;;;;8.10;4.90;;;;;;;19.55;77.47;98774.75;25068;1313;3026300;-63
2022/07/27 00:33:53;;;;;;;7.70;4.90;;;;;;;19.58;77.03;98769.89;25141;1313;3054129;-67
2022/07/27 00:36:21;;;;;;;7.50;5.30;;;;;;;19.45;77.28;98766.30;25062;1313;3027974;-66
2022/07/27 00:38:51;;;;;;;7.30;4.00;;;;;;;19.24;78.12;98768.10;25060;1314;3051038;-65
2022/07/27 00:41:20;;;;;;;10.30;4.70;;;;;;;19.64;77.41;98769.71;25132;1313;3026746;-61
2022/07/27 00:43:59;;;;;;;12.20;4.80;;;;;;;19.82;76.15;98762.95;25068;1313;3026349;-62
2022/07/27 00:46:28;;;;;;;6.90;4.50;;;;;;;19.71;76.22;98760.81;25066;1313;3051833;-63
2022/07/27 00:48:57;;;;;;;10.50;5.50;;;;;;;19.45;76.87;98758.79;25108;1312;3026471;-68
2022/07/27 00:51:26;;;;;;;11.10;5.10;;;;;;;19.27;77.74;98762.64;25103;1313;3071398;-62
2022/07/27 00:53:55;;;;;;;7.20;3.90;;;;;;;19.06;79.06;98767.46;25055;1313;3026854;-62
2022/07/27 00:56:24;;;;;;;5.70;4.10;;;;;;;19.39;78.27;98761.77;25094;1313;3052652;-68
2022/07/27 00:58:53;;;;;;;7.80;4.50;;;;;;;19.46;77.50;98760.17;25088;1313;3028485;-65
2022/07/27 01:01:22;;;;;;;7.10;4.90;;;;;;;19.36;77.75;98757.65;25114;1313;3054930;-64
2022/07/27 01:03:51;;;;;;;7.30;5.50;;;;;;;19.15;78.45;98761.64;25104;1313;3026079;-62
2022/07/27 01:06:21;;;;;;;8.60;4.50;;;;;;;18.98;79.10;98759.92;25108;1315;3051444;-64
2022/07/27 01:08:51;;;;;;;5.80;4.20;;;;;;;18.75;80.68;98761.98;25093;1313;3026797;-64
2022/07/27 01:11:20;;;;;;;7.80;4.40;;;;;;;19.23;79.00;98756.72;25072;1313;3027613;-66
2022/07/27 01:13:51;;;;;;;7.80;5.00;;;;;;;19.40;77.90;98760.25;25134;1313;3027384;-61
2022/07/27 01:16:20;;;;;;;9.20;5.20;;;;;;;19.21;78.52;98762.97;25093;1313;3026453;-63
2022/07/27 01:18:50;;;;;;;7.60;5.40;;;;;;;18.89;79.71;98761.59;25056;1313;3028591;-67
2022/07/27 01:21:20;;;;;;;7.10;3.80;;;;;;;18.82;80.22;98758.07;25006;1313;3026664;-63
2022/07/27 01:23:49;;;;;;;6.60;4.60;;;;;;;19.35;78.29;98756.35;25066;1313;3026478;-64
2022/07/27 01:26:18;;;;;;;9.00;5.10;;;;;;;19.55;76.89;98759.83;25118;1311;3026372;-64
2022/07/27 01:28:48;;;;;;;9.30;6.00;;;;;;;19.32;77.50;98765.87;25067;1313;3025526;-67
2022/07/27 01:31:17;;;;;;;18.80;8.00;;;;;;;19.01;78.83;98764.29;25080;1313;3026345;-63
2022/07/27 01:33:47;;;;;;;18.70;10.00;;;;;;;18.75;79.84;98764.95;25024;1314;3052315;-62
2022/07/27 01:36:16;;;;;;;15.50;8.60;;;;;;;18.58;81.04;98763.56;25073;1313;3029895;-62
2022/07/27 01:38:45;;;;;;;18.30;10.20;;;;;;;18.90;80.00;98766.33;25037;1313;3057968;-67
2022/07/27 01:41:14;;;;;;;16.10;9.60;;;;;;;19.14;78.69;98769.23;25073;1314;3026821;-64
2022/07/27 01:43:44;;;;;;;18.10;10.90;;;;;;;19.08;78.55;98771.45;25081;1313;3054711;-65
2022/07/27 01:46:13;;;;;;;16.80;9.50;;;;;;;18.82;79.50;98774.39;25047;1313;3026608;-67
2022/07/27 01:48:42;;;;;;;17.00;8.50;;;;;;;18.53;81.16;98776.92;25116;1313;3026540;-61
2022/07/27 01:51:14;;;;;;;16.00;8.90;;;;;;;18.80;80.33;98776.02;25104;1313;3055314;-64
2022/07/27 01:53:43;;;;;;;15.10;8.40;;;;;;;18.96;79.13;98785.64;25042;1313;3026881;-67
2022/07/27 01:56:12;;;;;;;15.80;8.90;;;;;;;18.78;79.84;98781.74;25090;1311;3026485;-65
2022/07/27 01:58:42;;;;;;;14.00;9.00;;;;;;;18.46;81.21;98783.64;25126;1313;3054210;-66
2022/07/27 02:01:12;;;;;;;11.60;7.60;;;;;;;18.31;82.11;98778.33;25061;1313;3028075;-66
2022/07/27 02:03:41;;;;;;;17.60;9.80;;;;;;;18.59;81.03;98783.86;25154;1313;3026769;-66
2022/07/27 02:06:11;;;;;;;23.40;13.00;;;;;;;18.76;80.07;98783.70;25088;1313;3053233;-63
2022/07/27 02:08:40;;;;;;;31.20;13.50;;;;;;;18.60;80.67;98785.22;25112;1313;3026759;-64
2022/07/27 02:13:57;;;;;;;15.20;7.00;;;;;;;18.26;82.27;98784.66;25076;1313;3055177;-61
2022/07/27 02:16:27;;;;;;;14.40;8.00;;;;;;;18.54;81.29;98788.32;25138;1314;3027091;-66
2022/07/27 02:18:56;;;;;;;16.80;8.00;;;;;;;18.76;80.25;98786.53;25062;1314;3026838;-62
2022/07/27 02:21:25;;;;;;;14.10;9.00;;;;;;;18.56;80.46;98786.87;25052;1313;3054350;-62
2022/07/27 02:23:54;;;;;;;15.70;9.30;;;;;;;18.36;81.36;98790.36;25114;1313;3028994;-64
2022/07/27 02:26:23;;;;;;;9.10;6.00;;;;;;;18.22;82.22;98792.82;25064;1316;3052517;-63
2022/07/27 02:28:52;;;;;;;17.50;7.80;;;;;;;18.58;81.07;98794.33;25124;1313;3026771;-63
2022/07/27 02:31:21;;;;;;;16.00;9.80;;;;;;;18.69;80.36;98796.55;25073;1312;3052829;-63
2022/07/27 02:33:50;;;;;;;17.90;9.60;;;;;;;18.58;80.69;98799.75;25145;1313;3028751;-63
2022/07/27 02:36:19;;;;;;;16.30;9.00;;;;;;;18.43;81.40;98807.90;25109;1313;3026541;-61
2022/07/27 02:38:48;;;;;;;12.10;7.00;;;;;;;18.36;81.63;98802.29;25081;1313;3051600;-62
2022/07/27 02:41:17;;;;;;;12.60;7.30;;;;;;;18.77;80.04;98808.56;25103;1313;3026949;-65
2022/07/27 02:43:46;;;;;;;11.40;7.40;;;;;;;18.92;79.32;98809.88;25069;1311;3070995;-63
2022/07/27 02:46:16;;;;;;;12.60;7.50;;;;;;;18.89;78.83;98813.24;25088;1313;3026476;-61
2022/07/27 02:48:45;;;;;;;16.30;8.20;;;;;;;18.80;78.96;98811.86;25083;1313;3026609;-64
2022/07/27 02:51:14;;;;;;;11.70;6.10;;;;;;;18.63;79.38;98811.38;25126;1313;3068925;-62
2022/07/27 02:53:45;;;;;;;8.90;6.80;;;;;;;19.01;78.08;98812.83;25078;1313;3027458;-63
2022/07/27 02:56:14;;;;;;;10.30;6.60;;;;;;;19.31;76.74;98813.61;25137;1313;3026491;-64
2022/07/27 02:58:43;;;;;;;14.20;7.70;;;;;;;19.25;76.82;98814.94;25057;1313;3069389;-62
2022/07/27 03:01:13;;;;;;;11.00;7.20;;;;;;;19.04;77.49;98812.71;25050;1314;3026411;-63
2022/07/27 03:03:43;;;;;;;13.40;7.20;;;;;;;18.87;78.34;98817.87;25134;1313;3027130;-62
2022/07/27 03:06:12;;;;;;;9.10;5.60;;;;;;;18.74;78.76;98818.89;25078;1313;3026314;-63
2022/07/27 03:08:42;;;;;;;10.90;6.20;;;;;;;19.18;77.72;98814.80;25075;1314;3051654;-61
2022/07/27 03:11:14;;;;;;;11.80;6.60;;;;;;;19.43;76.52;98820.30;25091;1313;3026574;-61
2022/07/27 03:13:44;;;;;;;8.70;6.40;;;;;;;19.30;76.42;98818.84;25047;1315;3026727;-64
2022/07/27 03:16:15;;;;;;;10.10;7.20;;;;;;;19.12;77.27;98821.31;25139;1313;3026733;-63
2022/07/27 03:18:46;;;;;;;11.80;7.40;;;;;;;18.92;78.10;98824.57;25104;1313;3026453;-67
2022/07/27 03:21:15;;;;;;;12.70;7.70;;;;;;;18.73;79.15;98830.69;25097;1312;3027178;-62
2022/07/27 03:23:46;;;;;;;13.80;8.10;;;;;;;19.16;77.69;98826.67;25043;1313;3026434;-64
2022/07/27 03:26:16;;;;;;;12.50;7.80;;;;;;;19.47;76.19;98831.06;25100;1313;3028029;-66
2022/07/27 03:28:45;;;;;;;14.80;8.80;;;;;;;19.45;75.88;98831.42;25091;1313;3052936;-67
2022/07/27 03:31:14;;;;;;;14.50;8.10;;;;;;;19.31;76.40;98830.61;25129;1313;3026401;-63
2022/07/27 03:33:44;;;;;;;15.80;8.80;;;;;;;19.31;76.24;98834.38;25135;1313;3050886;-65
2022/07/27 03:36:14;;;;;;;14.60;7.70;;;;;;;19.29;76.49;98839.95;25126;1313;3026284;-61
2022/07/27 03:38:43;;;;;;;16.30;8.70;;;;;;;19.98;74.94;98846.92;25036;1313;3027236;-63
2022/07/27 03:41:12;;;;;;;15.40;9.70;;;;;;;20.44;73.01;98853.39;25085;1313;3028517;-69
2022/07/27 03:43:42;;;;;;;19.00;11.10;;;;;;;20.49;72.27;98851.04;25175;1313;3052933;-66
2022/07/27 03:46:12;;;;;;;24.30;12.00;;;;;;;20.36;72.42;98855.55;25079;1313;3026478;-65
2022/07/27 03:48:41;;;;;;;26.70;14.00;;;;;;;20.16;72.82;98858.73;25129;1313;3049261;-66
2022/07/27 03:51:10;;;;;;;22.60;13.40;;;;;;;19.95;73.64;98861.80;25062;1314;3026367;-66
2022/07/27 03:53:39;;;;;;;21.50;11.10;;;;;;;19.91;73.84;98862.93;25061;1312;3058145;-62
2022/07/27 03:56:08;;;;;;;21.70;10.40;;;;;;;20.39;72.70;98864.94;25123;1313;3026461;-64
2022/07/27 03:58:39;;;;;;;20.50;10.60;;;;;;;20.75;71.52;98858.06;25075;1315;3054725;-67
2022/07/27 04:01:08;;;;;;;22.40;11.30;;;;;;;20.91;70.99;98858.14;25102;1313;3028285;-65
2022/07/27 04:03:37;;;;;;;19.30;11.00;;;;;;;20.83;70.81;98861.27;25051;1313;3054583;-64
2022/07/27 04:06:06;;;;;;;19.90;11.40;;;;;;;20.61;71.02;98866.20;25120;1314;3026764;-63
2022/07/27 04:08:35;;;;;;;22.00;11.20;;;;;;;20.44;71.84;98873.52;25111;1313;3051404;-66
2022/07/27 04:11:04;;;;;;;19.30;9.60;;;;;;;20.38;72.18;98874.34;25172;1313;3026635;-63
2022/07/27 04:13:33;;;;;;;22.40;9.70;;;;;;;20.92;71.54;98871.15;25014;1314;3070952;-68
2022/07/27 04:16:04;;;;;;;22.50;11.40;;;;;;;21.46;69.45;98870.13;25121;1313;3026222;-69
2022/07/27 04:18:33;;;;;;;19.00;10.50;;;;;;;21.54;68.57;98870.70;25064;1313;3026421;-63
2022/07/27 04:21:05;;;;;;;23.20;11.60;;;;;;;21.38;68.96;98878.80;25040;1314;3068727;-67
2022/07/27 04:23:34;;;;;;;19.40;11.90;;;;;;;21.26;69.21;98874.98;25117;1313;3027853;-63
2022/07/27 04:26:03;;;;;;;19.50;11.00;;;;;;;21.17;69.29;98874.91;25054;1314;3026474;-65
2022/07/27 04:28:32;;;;;;;23.00;12.30;;;;;;;21.01;69.64;98873.55;25127;1313;3069516;-65
2022/07/27 04:31:01;;;;;;;19.60;9.30;;;;;;;20.91;70.05;98873.75;25143;1313;3027051;-66
2022/07/27 04:33:30;;;;;;;23.70;10.30;;;;;;;21.38;69.36;98873.02;25130;1313;3053509;-66
2022/07/27 04:35:59;;;;;;;19.20;10.60;;;;;;;21.98;67.56;98871.13;25096;1313;3026127;-65
2022/07/27 04:38:29;;;;;;;18.80;10.00;;;;;;;22.17;67.14;98867.80;25111;1313;3055091;-67
2022/07/27 04:40:58;;;;;;;16.90;11.40;;;;;;;22.11;66.60;98874.55;25143;1313;3026659;-64
2022/07/27 04:43:27;;;;;;;20.20;11.70;;;;;;;21.84;67.38;98875.89;25120;1313;3049495;-65
2022/07/27 04:45:56;;;;;;;22.00;12.20;;;;;;;21.57;68.25;98882.82;25086;1314;3026510;-64
2022/07/27 04:48:25;;;;;;;16.20;9.70;;;;;;;21.43;68.69;98886.61;25071;1313;3057831;-65
2022/07/27 04:50:54;;;;;;;15.10;10.20;;;;;;;21.29;68.50;98885.31;25144;1313;3025924;-62
2022/07/27 04:53:23;;;;;;;12.30;7.30;;;;;;;21.27;68.54;98887.34;25083;1314;3054322;-63
2022/07/27 04:55:52;;;;;;;17.60;8.80;;;;;;;21.88;67.69;98883.98;25173;1312;3026760;-68
2022/07/27 04:58:24;;;;;;;15.00;8.70;;;;;;;22.37;66.48;98883.60;25174;1313;3054385;-64
2022/07/27 05:00:53;;;;;;;16.10;9.50;;;;;;;22.45;65.82;98883.10;25066;1313;3027061;-65
2022/07/27 05:03:22;;;;;;;13.50;9.40;;;;;;;22.18;66.15;98882.87;25166;1313;3048857;-65
2022/07/27 05:05:52;;;;;;;15.60;8.20;;;;;;;21.98;66.75;98881.95;25012;1315;3029021;-66
2022/07/27 05:08:21;;;;;;;13.10;7.80;;;;;;;21.88;67.43;98880.96;25056;1314;3070869;-65
2022/07/27 05:10:52;;;;;;;17.20;8.70;;;;;;;21.91;66.86;98880.89;25043;1315;3029379;-64
2022/07/27 05:13:20;;;;;;;10.90;6.80;;;;;;;21.90;66.90;98877.61;25063;1313;3026798;-64
2022/07/27 05:15:54;;;;;;;;;;;;;;;21.82;66.35;98879.39;25075;1313;3071829;-65
2022/07/27 05:18:24;;;;;;;7.60;5.40;;;;;;;21.69;66.70;98879.33;25060;1313;3026717;-66
2022/07/27 05:20:53;;;;;;;12.20;6.00;;;;;;;21.65;66.47;98881.08;25061;1315;3053751;-65
2022/07/27 05:23:23;;;;;;;8.30;4.40;;;;;;;21.70;66.22;98879.94;25133;1313;3026602;-63
2022/07/27 05:25:52;;;;;;;12.50;4.30;;;;;;;22.39;64.48;98877.52;25116;1314;3026705;-64
2022/07/27 05:28:21;;;;;;;8.20;4.60;;;;;;;22.91;62.04;98881.07;25063;1315;3051096;-62
2022/07/27 05:30:50;;;;;;;8.10;4.60;;;;;;;23.00;61.40;98879.48;25099;1315;3026645;-66
2022/07/27 05:33:24;;;;;;;10.20;4.30;;;;;;;22.92;61.97;98885.27;25140;1314;3030381;-66
2022/07/27 05:35:55;;;;;;;10.40;3.40;;;;;;;22.81;61.33;98888.77;25042;1315;3026152;-66
2022/07/27 05:38:24;;;;;;;8.50;3.90;;;;;;;22.60;61.55;98886.48;25176;1315;3026902;-65
2022/07/27 05:40:53;;;;;;;11.70;4.90;;;;;;;22.56;61.93;98889.17;25089;1313;3026967;-65
2022/07/27 05:43:22;;;;;;;6.20;3.90;;;;;;;22.50;62.17;98890.10;25153;1315;3054304;-63
2022/07/27 05:45:51;;;;;;;4.40;3.10;;;;;;;22.55;61.81;98891.35;25114;1313;3026567;-63
2022/07/27 05:48:21;;;;;;;5.70;3.40;;;;;;;22.56;61.29;98889.05;25114;1315;3048566;-68
2022/07/27 05:50:50;;;;;;;6.40;3.60;;;;;;;22.58;61.50;98892.55;25097;1315;3030085;-63
2022/07/27 05:53:19;;;;;;;5.50;3.10;;;;;;;22.67;61.36;98890.14;25116;1313;3027001;-64
2022/07/27 05:55:49;;;;;;;6.80;3.00;;;;;;;22.71;60.64;98893.64;25183;1313;3047960;-64
2022/07/27 05:58:18;;;;;;;4.30;3.10;;;;;;;22.69;59.93;98894.92;25773;1313;3026354;-63
2022/07/27 06:00:47;;;;;;;4.10;2.40;;;;;;;22.72;60.15;98890.88;25418;1313;3026099;-63
2022/07/27 06:03:20;;;;;;;2.70;2.40;;;;;;;22.80;59.30;98892.63;25166;1313;3052281;-63
2022/07/27 06:05:50;;;;;;;6.50;2.90;;;;;;;22.73;59.73;98891.87;25141;1313;3027019;-63
2022/07/27 06:08:19;;;;;;;3.60;2.80;;;;;;;22.74;59.84;98889.17;25089;1315;3026896;-62
2022/07/27 06:10:50;;;;;;;5.20;3.20;;;;;;;22.79;60.24;98896.78;25183;1313;3026783;-66
2022/07/27 06:13:19;;;;;;;5.80;3.20;;;;;;;22.88;60.13;98898.30;25185;1313;3026821;-64
2022/07/27 06:15:49;;;;;;;5.10;3.50;;;;;;;22.97;60.12;98901.95;25182;1313;3052383;-67
2022/07/27 06:18:18;;;;;;;5.80;2.90;;;;;;;23.01;59.78;98905.09;25208;1313;3026340;-66
2022/07/27 06:20:47;;;;;;;4.70;2.90;;;;;;;23.01;59.30;98905.13;25204;1315;3026915;-64
2022/07/27 06:23:16;;;;;;;10.50;2.70;;;;;;;23.06;59.11;98904.81;25185;1313;3053325;-65
2022/07/27 06:25:45;;;;;;;6.80;2.40;;;;;;;23.15;58.79;98904.00;25103;1313;3026098;-64
2022/07/27 06:28:15;;;;;;;3.90;2.40;;;;;;;23.19;58.44;98902.02;25197;1313;3053948;-64
2022/07/27 06:30:45;;;;;;;3.00;2.30;;;;;;;23.18;58.17;98902.52;25125;1315;3027201;-64
2022/07/27 06:33:14;;;;;;;3.20;2.60;;;;;;;23.16;58.11;98902.53;25174;1315;3026364;-64
2022/07/27 06:35:43;;;;;;;2.90;2.50;;;;;;;23.19;58.38;98898.25;25148;1313;3027051;-64
2022/07/27 06:38:12;;;;;;;5.00;2.20;;;;;;;23.19;57.95;98902.45;25193;1313;3052345;-65
2022/07/27 06:40:41;;;;;;;4.50;2.60;;;;;;;23.31;57.75;98898.83;25100;1313;3026819;-64
2022/07/27 06:43:10;;;;;;;2.70;2.20;;;;;;;23.33;57.20;98901.20;25098;1313;3026778;-65
2022/07/27 06:45:39;;;;;;;4.70;2.60;;;;;;;23.25;57.53;98901.67;25147;1313;3054853;-62
2022/07/27 06:48:08;;;;;;;4.20;2.40;;;;;;;23.28;57.69;98909.10;25127;1313;3026448;-63
2022/07/27 06:50:37;;;;;;;3.10;2.50;;;;;;;23.47;56.98;98907.86;25076;1315;3054201;-65
2022/07/27 06:53:06;;;;;;;3.60;2.60;;;;;;;23.54;56.51;98905.63;25097;1313;3026581;-62
2022/07/27 06:55:35;;;;;;;3.30;2.80;;;;;;;23.65;56.48;98906.52;25107;1316;3048735;-65
2022/07/27 06:58:05;;;;;;;3.60;3.00;;;;;;;23.70;56.10;98906.31;25066;1313;3027675;-63
2022/07/27 07:00:35;;;;;;;5.30;3.30;;;;;;;23.68;56.43;98904.60;25169;1313;3026672;-65
2022/07/27 07:03:04;;;;;;;4.80;3.30;;;;;;;23.70;56.76;98911.30;25143;1315;3050699;-62
2022/07/27 07:05:39;;;;;;;9.20;3.40;;;;;;;23.66;56.75;98907.80;25124;1313;3028589;-65
2022/07/27 07:08:10;;;;;;;6.10;3.40;;;;;;;23.79;56.83;98905.86;25103;1316;3055333;-63
2022/07/27 07:10:41;;;;;;;6.40;3.40;;;;;;;23.85;56.68;98905.33;25083;1313;3026572;-65
2022/07/27 07:13:10;;;;;;;6.40;3.30;;;;;;;23.77;56.78;98910.39;25209;1313;3026718;-64
2022/07/27 07:15:39;;;;;;;7.00;3.70;;;;;;;23.78;56.78;98906.69;25139;1313;3026871;-66
2022/07/27 07:18:12;;;;;;;7.50;3.40;;;;;;;23.71;56.70;98916.19;25174;1313;3058498;-63
2022/07/27 07:20:41;;;;;;;7.90;3.10;;;;;;;23.75;56.55;98909.62;25111;1316;3027286;-63
2022/07/27 07:23:10;;;;;;;4.90;3.20;;;;;;;23.86;56.22;98914.54;25108;1313;3026166;-64
2022/07/27 07:25:40;;;;;;;5.30;3.40;;;;;;;23.98;55.65;98919.14;25126;1314;3055242;-65
2022/07/27 07:28:09;;;;;;;5.10;3.60;;;;;;;24.09;55.50;98914.19;25161;1313;3026870;-63
2022/07/27 07:30:38;;;;;;;6.70;4.10;;;;;;;24.13;55.44;98915.66;25121;1313;3027231;-65
2022/07/27 07:33:07;;;;;;;5.30;4.00;;;;;;;24.14;55.74;98923.39;25070;1313;3027251;-64
2022/07/27 07:35:36;;;;;;;6.30;3.50;;;;;;;24.14;55.32;98922.12;25084;1313;3051181;-66
2022/07/27 07:38:05;;;;;;;6.50;3.40;;;;;;;24.17;54.98;98922.47;25219;1313;3026567;-63
2022/07/27 07:40:36;;;;;;;5.00;3.30;;;;;;;24.17;55.34;98922.80;25140;1313;3057492;-64
2022/07/27 07:43:05;;;;;;;4.40;3.50;;;;;;;24.23;55.25;98923.83;25141;1313;3027554;-68
2022/07/27 07:45:36;;;;;;;4.80;4.00;;;;;;;24.32;54.73;98924.34;25088;1316;3026622;-65
2022/07/27 07:48:06;;;;;;;6.50;3.90;;;;;;;24.36;54.54;98922.98;25096;1313;3030846;-65
2022/07/27 07:50:37;;;;;;;5.90;4.00;;;;;;;24.46;54.42;98920.23;25138;1313;3026812;-66
2022/07/27 07:53:06;;;;;;;8.00;3.50;;;;;;;24.55;54.37;98919.01;25130;1313;3026891;-64
2022/07/27 07:55:35;;;;;;;4.70;3.30;;;;;;;24.61;53.47;98919.59;25074;1313;3050590;-65
2022/07/27 07:58:05;;;;;;;5.00;3.10;;;;;;;24.71;52.82;98922.44;25179;1313;3030071;-64
2022/07/27 08:00:34;;;;;;;6.60;3.10;;;;;;;24.85;52.34;98925.48;25150;1314;3026445;-64
2022/07/27 08:03:03;;;;;;;7.20;3.40;;;;;;;24.91;51.76;98923.23;25041;1316;3052342;-63
2022/07/27 08:05:32;;;;;;;4.10;3.20;;;;;;;25.07;51.89;98928.73;25165;1313;3026371;-63
2022/07/27 08:08:03;;;;;;;6.90;2.70;;;;;;;25.20;51.15;98926.84;25077;1315;3053740;-64
2022/07/27 08:10:33;;;;;;;5.40;3.30;;;;;;;25.36;50.92;98924.64;25188;1313;3027276;-65
2022/07/27 08:13:03;;;;;;;7.70;2.70;;;;;;;25.53;50.51;98923.11;25104;1313;3026407;-68
2022/07/27 08:15:32;;;;;;;4.20;3.60;;;;;;;25.67;50.06;98921.86;25086;1313;3028215;-64
2022/07/27 08:18:01;;;;;;;8.70;3.10;;;;;;;25.59;49.58;98927.27;25135;1313;3053837;-65
2022/07/27 08:20:31;;;;;;;5.70;3.30;;;;;;;25.68;49.53;98927.23;25128;1313;3026367;-64
2022/07/27 08:23:01;;;;;;;10.60;3.20;;;;;;;25.72;49.41;98929.23;25114;1313;3026986;-64
2022/07/27 08:25:30;;;;;;;6.60;3.20;;;;;;;25.96;48.98;98924.77;25090;1313;3026513;-65
2022/07/27 08:27:59;;;;;;;6.60;3.00;;;;;;;26.12;49.29;98925.02;25058;1316;3068672;-65
2022/07/27 08:30:29;;;;;;;7.60;3.50;;;;;;;26.26;49.14;98924.34;25092;1313;3027741;-62
2022/07/27 08:33:02;;;;;;;5.40;3.30;;;;;;;26.42;48.06;98925.73;25164;1312;3026512;-65
2022/07/27 08:35:32;;;;;;;7.10;3.60;;;;;;;26.47;47.94;98924.52;25071;1313;3027422;-67
2022/07/27 08:38:03;;;;;;;7.80;3.70;;;;;;;26.54;48.10;98922.90;25057;1315;3026068;-64
2022/07/27 08:40:32;;;;;;;7.60;3.30;;;;;;;26.62;48.38;98920.23;25154;1313;3026044;-67
2022/07/27 08:43:02;;;;;;;9.80;3.60;;;;;;;26.58;48.25;98921.20;25053;1315;3028840;-64
2022/07/27 08:45:31;;;;;;;5.80;3.00;;;;;;;26.58;48.26;98922.27;25101;1315;3058862;-65
2022/07/27 08:48:00;;;;;;;18.60;4.00;;;;;;;26.59;48.32;98927.36;25109;1313;3026144;-66
2022/07/27 08:50:32;;;;;;;9.70;4.00;;;;;;;26.63;48.17;98924.70;25168;1315;3027084;-66
2022/07/27 08:53:02;;;;;;;4.30;3.40;;;;;;;26.51;48.24;98928.22;25047;1311;3027624;-64
2022/07/27 08:55:34;;;;;;;5.00;3.40;;;;;;;26.49;46.63;98930.08;25090;1316;3027587;-65
2022/07/27 08:58:04;;;;;;;6.90;3.60;;;;;;;26.09;46.53;98928.87;25159;1313;3028411;-68
2022/07/27 09:00:34;;;;;;;6.80;3.40;;;;;;;25.86;46.96;98930.36;25101;1313;3026208;-65
2022/07/27 09:03:03;;;;;;;8.00;3.70;;;;;;;25.90;47.32;98930.40;25106;1313;3026535;-64
2022/07/27 09:05:32;;;;;;;7.90;3.30;;;;;;;25.91;47.14;98931.86;25104;1313;3027540;-65
2022/07/27 09:08:13;;;;;;;5.90;3.80;;;;;;;25.88;47.20;98930.54;25144;1315;3052408;-65
2022/07/27 09:10:42;;;;;;;7.80;3.70;;;;;;;25.89;47.07;98931.40;25062;1313;3055278;-64
2022/07/27 09:13:25;;;;;;;6.30;3.50;;;;;;;26.12;46.60;98927.91;25118;1313;3026455;-64
2022/07/27 09:16:08;;;;;;;8.40;3.60;;;;;;;26.48;46.28;98930.95;25121;1313;3052966;-66
2022/07/27 09:18:37;;;;;;;5.50;3.00;;;;;;;26.85;45.49;98926.79;25076;1312;3055402;-61
2022/07/27 09:21:17;;;;;;;5.50;3.30;;;;;;;26.94;44.98;98932.02;23920;1312;4199369;-62
2022/07/27 09:24:08;;;;;;;8.50;4.10;;;;;;;26.98;44.87;98929.65;25070;1313;3052506;-62
2022/07/27 09:26:38;;;;;;;5.90;3.90;;;;;;;27.05;43.95;98927.30;25059;1313;3055588;-66
2022/07/27 09:29:12;;;;;;;7.20;3.80;;;;;;;27.15;44.17;98926.02;25165;1313;3026426;-65
2022/07/27 09:31:43;;;;;;;8.80;4.30;;;;;;;27.37;44.12;98919.20;25124;1313;3026044;-64
2022/07/27 09:34:13;;;;;;;11.50;3.90;;;;;;;27.58;43.87;98921.98;25113;1315;3026596;-65
2022/07/27 09:36:52;;;;;;;7.50;4.30;;;;;;;27.60;42.79;98925.67;25046;1313;3027308;-65
2022/07/27 09:39:24;;;;;;;11.20;4.40;;;;;;;27.55;42.36;98923.16;25187;1313;3052303;-63
2022/07/27 09:42:01;;;;;;;11.10;4.10;;;;;;;27.51;41.88;98928.76;25129;1313;3026658;-70
2022/07/27 09:44:38;;;;;;;8.30;4.30;;;;;;;27.48;41.60;98927.41;25099;1313;3049533;-64
2022/07/27 09:47:21;;;;;;;8.10;3.90;;;;;;;27.62;41.51;98926.98;25192;1313;3052177;-66
2022/07/27 09:49:51;;;;;;;6.60;4.60;;;;;;;27.78;41.38;98932.00;25144;1313;3054635;-63
2022/07/27 09:52:29;;;;;;;7.10;4.50;;;;;;;27.79;40.97;98930.29;25034;1314;3026490;-64
2022/07/27 09:55:03;;;;;;;6.50;4.20;;;;;;;27.92;41.02;98927.36;25095;1313;3051741;-65
2022/07/27 09:57:50;;;;;;;8.00;4.40;;;;;;;27.85;41.17;98924.73;25357;1313;3054576;-67
2022/07/27 10:00:20;;;;;;;10.70;4.30;;;;;;;28.01;40.34;98927.52;25120;1313;3052488;-66
2022/07/27 10:02:49;;;;;;;12.30;4.20;;;;;;;28.29;40.40;98930.36;25164;1313;3028421;-65
2022/07/27 10:05:21;;;;;;;4.20;2.90;;;;;;;28.38;38.78;98931.82;25206;1315;3026701;-63
2022/07/27 10:07:52;;;;;;;4.00;2.60;;;;;;;28.25;37.83;98931.47;25105;1314;3027930;-67
2022/07/27 10:10:21;;;;;;;6.70;3.20;;;;;;;28.16;38.79;98931.68;25124;1312;3026909;-63
2022/07/27 10:12:51;;;;;;;3.70;2.20;;;;;;;28.30;37.22;98927.27;25128;1313;3027388;-65
2022/07/27 10:15:21;;;;;;;5.10;3.00;;;;;;;28.38;37.17;98929.95;25110;1313;3027616;-63
2022/07/27 10:18:05;;;;;;;8.80;2.70;;;;;;;28.68;36.81;98932.66;25214;1313;3055183;-63
2022/07/27 10:20:35;;;;;;;8.40;3.80;;;;;;;28.93;37.01;98930.52;25046;1313;3028511;-66
2022/07/27 10:23:05;;;;;;;5.00;3.50;;;;;;;28.94;36.65;98929.30;25121;1313;3026690;-65
2022/07/27 10:25:34;;;;;;;7.00;3.10;;;;;;;28.81;35.95;98928.02;25150;1315;3026428;-63
2022/07/27 10:28:16;;;;;;;6.50;3.90;;;;;;;29.09;36.14;98930.66;25070;1313;3054256;-65
2022/07/27 10:30:45;;;;;;;6.20;3.80;;;;;;;29.25;36.21;98929.64;25050;1313;3058714;-67
2022/07/27 10:33:15;;;;;;;5.00;3.60;;;;;;;28.93;36.54;98927.81;25159;1312;3026711;-65
2022/07/27 10:35:44;;;;;;;11.30;3.90;;;;;;;28.78;36.69;98932.00;25166;1313;3054878;-63
2022/07/27 10:38:16;;;;;;;5.00;3.40;;;;;;;28.66;36.73;98931.77;25047;1312;3028175;-67
2022/07/27 10:40:47;;;;;;;6.60;3.10;;;;;;;28.44;36.94;98931.85;25046;1312;3054794;-70
2022/07/27 10:43:20;;;;;;;8.70;3.40;;;;;;;28.29;37.41;98927.45;25062;1313;3027133;-66
2022/07/27 10:45:50;;;;;;;8.10;3.90;;;;;;;28.23;37.61;98927.10;25075;1313;3026490;-64
2022/07/27 10:48:36;;;;;;;6.40;3.40;;;;;;;28.35;37.88;98929.35;25203;1315;3027547;-67
2022/07/27 10:51:06;;;;;;;5.20;3.30;;;;;;;28.62;37.82;98924.02;25169;1313;3056002;-66
2022/07/27 10:53:37;;;;;;;6.60;3.60;;;;;;;28.82;36.87;98920.86;25169;1312;3026387;-65
2022/07/27 10:56:07;;;;;;;8.70;3.70;;;;;;;29.06;35.96;98917.55;25156;1313;3027418;-66
2022/07/27 10:58:35;;;;;;;12.00;3.90;;;;;;;29.25;37.05;98917.27;25218;1313;3026700;-71
2022/07/27 11:01:07;;;;;;;6.80;3.50;;;;;;;29.37;36.57;98915.55;25092;1314;3026841;-64
2022/07/27 11:03:38;;;;;;;12.40;3.50;;;;;;;29.63;36.17;98911.17;25132;1314;3067998;-67
2022/07/27 11:06:18;;;;;;;8.70;3.20;;;;;;;29.70;36.29;98913.59;25226;1312;3026556;-64
2022/07/27 11:08:51;;;;;;;6.00;3.40;;;;;;;29.75;36.15;98911.13;25122;1313;3055329;-64
2022/07/27 11:11:22;;;;;;;7.40;3.00;;;;;;;29.81;36.47;98909.04;25161;1313;3026980;-64
2022/07/27 11:13:56;;;;;;;7.00;3.70;;;;;;;29.93;36.58;98913.88;25140;1313;3026538;-63
2022/07/27 11:16:26;;;;;;;4.90;3.00;;;;;;;30.08;36.44;98916.01;25091;1313;3052853;-65
2022/07/27 11:19:05;;;;;;;5.80;3.30;;;;;;;30.04;35.50;98917.22;25130;1313;3026677;-63
2022/07/27 11:21:37;;;;;;;3.30;2.70;;;;;;;30.19;35.51;98916.77;25163;1313;3052444;-62
2022/07/27 11:24:16;;;;;;;6.30;3.10;;;;;;;30.11;36.10;98913.86;25067;1315;3028179;-62
2022/07/27 11:26:49;;;;;;;6.70;3.00;;;;;;;30.19;35.81;98914.59;25064;1313;3049321;-62
2022/07/27 11:29:20;;;;;;;7.10;2.80;;;;;;;30.41;35.50;98917.83;25156;1313;3051253;-65
2022/07/27 11:31:53;;;;;;;6.90;2.70;;;;;;;30.24;35.75;98916.92;25108;1312;3026769;-65